sensor_id;sensor_type;location;lat;lon;timestamp;P1;durP1;ratioP1;P2;durP2;ratioP2
13481;SDS011;6813;60.352;15.746;2023-07-31T00:00:33;3.65;;;2.00;;
13481;SDS011;6813;60.352;15.746;2023-07-31T00:02:59;2.15;;;1.95;;
13481;SDS011;6813;60.352;15.746;2023-07-31T00:05:25;4.40;;;2.35;;
13481;SDS011;6813;60.352;15.746;2023-07-31T00:07:50;2.40;;;1.80;;
13481;SDS011;6813;60.352;15.746;2023-07-31T00:10:16;4.95;;;2.05;;
13481;SDS011;6813;60.352;15.746;2023-07-31T00:12:42;4.57;;;1.90;;
13481;SDS011;6813;60.352;15.746;2023-07-31T00:15:10;3.38;;;2.05;;
13481;SDS011;6813;60.352;15.746;2023-07-31T00:17:36;4.80;;;1.98;;
13481;SDS011;6813;60.352;15.746;2023-07-31T00:20:02;3.70;;;2.00;;
13481;SDS011;6813;60.352;15.746;2023-07-31T00:22:28;5.43;;;2.00;;
13481;SDS011;6813;60.352;15.746;2023-07-31T00:24:54;3.30;;;2.30;;
13481;SDS011;6813;60.352;15.746;2023-07-31T00:27:21;4.55;;;2.00;;
13481;SDS011;6813;60.352;15.746;2023-07-31T00:29:46;7.80;;;2.30;;
13481;SDS011;6813;60.352;15.746;2023-07-31T00:32:12;2.75;;;2.22;;
13481;SDS011;6813;60.352;15.746;2023-07-31T00:34:38;3.25;;;1.60;;
13481;SDS011;6813;60.352;15.746;2023-07-31T00:37:04;4.43;;;1.52;;
13481;SDS011;6813;60.352;15.746;2023-07-31T00:39:30;5.97;;;2.38;;
13481;SDS011;6813;60.352;15.746;2023-07-31T00:41:56;2.05;;;1.77;;
13481;SDS011;6813;60.352;15.746;2023-07-31T00:44:21;5.13;;;1.85;;
13481;SDS011;6813;60.352;15.746;2023-07-31T00:46:47;4.82;;;2.22;;
13481;SDS011;6813;60.352;15.746;2023-07-31T00:49:14;4.38;;;1.80;;
13481;SDS011;6813;60.352;15.746;2023-07-31T00:51:40;4.07;;;2.13;;
13481;SDS011;6813;60.352;15.746;2023-07-31T00:54:06;1.85;;;1.52;;
13481;SDS011;6813;60.352;15.746;2023-07-31T00:56:31;4.57;;;2.13;;
13481;SDS011;6813;60.352;15.746;2023-07-31T00:58:57;2.95;;;1.50;;
13481;SDS011;6813;60.352;15.746;2023-07-31T01:01:23;8.60;;;3.22;;
13481;SDS011;6813;60.352;15.746;2023-07-31T01:03:49;4.35;;;2.65;;
13481;SDS011;6813;60.352;15.746;2023-07-31T01:06:34;6.35;;;2.80;;
13481;SDS011;6813;60.352;15.746;2023-07-31T01:12:13;3.78;;;1.90;;
13481;SDS011;6813;60.352;15.746;2023-07-31T01:14:50;3.25;;;1.67;;
13481;SDS011;6813;60.352;15.746;2023-07-31T01:17:36;4.13;;;2.20;;
13481;SDS011;6813;60.352;15.746;2023-07-31T01:20:08;3.85;;;2.22;;
13481;SDS011;6813;60.352;15.746;2023-07-31T01:23:13;2.50;;;1.70;;
13481;SDS011;6813;60.352;15.746;2023-07-31T01:26:00;3.83;;;2.13;;
13481;SDS011;6813;60.352;15.746;2023-07-31T01:31:25;5.40;;;2.30;;
13481;SDS011;6813;60.352;15.746;2023-07-31T01:33:53;4.85;;;2.03;;
13481;SDS011;6813;60.352;15.746;2023-07-31T01:36:20;3.17;;;2.28;;
13481;SDS011;6813;60.352;15.746;2023-07-31T01:38:46;4.35;;;2.05;;
13481;SDS011;6813;60.352;15.746;2023-07-31T01:41:12;3.47;;;2.20;;
13481;SDS011;6813;60.352;15.746;2023-07-31T01:43:38;2.85;;;2.05;;
13481;SDS011;6813;60.352;15.746;2023-07-31T01:46:04;3.58;;;2.00;;
13481;SDS011;6813;60.352;15.746;2023-07-31T01:48:29;3.65;;;1.90;;
13481;SDS011;6813;60.352;15.746;2023-07-31T01:51:00;2.50;;;1.92;;
13481;SDS011;6813;60.352;15.746;2023-07-31T01:53:27;5.45;;;2.00;;
13481;SDS011;6813;60.352;15.746;2023-07-31T01:55:52;4.47;;;1.88;;
13481;SDS011;6813;60.352;15.746;2023-07-31T01:58:18;3.10;;;1.98;;
13481;SDS011;6813;60.352;15.746;2023-07-31T02:00:44;3.35;;;2.10;;
13481;SDS011;6813;60.352;15.746;2023-07-31T02:03:10;4.50;;;1.92;;
13481;SDS011;6813;60.352;15.746;2023-07-31T02:05:35;2.35;;;1.92;;
13481;SDS011;6813;60.352;15.746;2023-07-31T02:08:01;2.97;;;2.10;;
13481;SDS011;6813;60.352;15.746;2023-07-31T02:10:27;4.07;;;2.17;;
13481;SDS011;6813;60.352;15.746;2023-07-31T02:12:52;3.15;;;2.08;;
13481;SDS011;6813;60.352;15.746;2023-07-31T02:15:18;4.07;;;2.28;;
13481;SDS011;6813;60.352;15.746;2023-07-31T02:17:44;5.70;;;1.90;;
13481;SDS011;6813;60.352;15.746;2023-07-31T02:20:09;5.00;;;2.05;;
13481;SDS011;6813;60.352;15.746;2023-07-31T02:22:35;3.53;;;1.80;;
13481;SDS011;6813;60.352;15.746;2023-07-31T02:25:01;2.47;;;1.90;;
13481;SDS011;6813;60.352;15.746;2023-07-31T02:27:27;5.10;;;2.00;;
13481;SDS011;6813;60.352;15.746;2023-07-31T02:29:52;2.95;;;2.15;;
13481;SDS011;6813;60.352;15.746;2023-07-31T02:32:19;2.50;;;1.88;;
13481;SDS011;6813;60.352;15.746;2023-07-31T02:34:44;5.00;;;2.60;;
13481;SDS011;6813;60.352;15.746;2023-07-31T02:37:10;5.45;;;2.42;;
13481;SDS011;6813;60.352;15.746;2023-07-31T02:39:36;5.53;;;2.90;;
13481;SDS011;6813;60.352;15.746;2023-07-31T02:42:01;3.22;;;2.60;;
13481;SDS011;6813;60.352;15.746;2023-07-31T02:44:27;4.72;;;2.55;;
13481;SDS011;6813;60.352;15.746;2023-07-31T02:46:53;4.13;;;2.42;;
13481;SDS011;6813;60.352;15.746;2023-07-31T02:49:19;2.20;;;2.00;;
13481;SDS011;6813;60.352;15.746;2023-07-31T02:51:44;3.85;;;1.90;;
13481;SDS011;6813;60.352;15.746;2023-07-31T02:54:10;2.58;;;2.33;;
13481;SDS011;6813;60.352;15.746;2023-07-31T02:56:36;3.95;;;2.28;;
13481;SDS011;6813;60.352;15.746;2023-07-31T02:59:01;4.72;;;2.10;;
13481;SDS011;6813;60.352;15.746;2023-07-31T03:01:27;4.38;;;2.38;;
13481;SDS011;6813;60.352;15.746;2023-07-31T03:03:53;5.07;;;2.53;;
13481;SDS011;6813;60.352;15.746;2023-07-31T03:06:18;3.83;;;2.58;;
13481;SDS011;6813;60.352;15.746;2023-07-31T03:08:44;2.78;;;1.92;;
13481;SDS011;6813;60.352;15.746;2023-07-31T03:11:09;5.90;;;2.13;;
13481;SDS011;6813;60.352;15.746;2023-07-31T03:13:35;4.60;;;2.35;;
13481;SDS011;6813;60.352;15.746;2023-07-31T03:16:01;6.07;;;2.30;;
13481;SDS011;6813;60.352;15.746;2023-07-31T03:18:27;5.90;;;2.50;;
13481;SDS011;6813;60.352;15.746;2023-07-31T03:20:52;3.97;;;2.22;;
13481;SDS011;6813;60.352;15.746;2023-07-31T03:23:18;5.97;;;2.42;;
13481;SDS011;6813;60.352;15.746;2023-07-31T03:25:59;4.05;;;2.47;;
13481;SDS011;6813;60.352;15.746;2023-07-31T03:28:28;3.13;;;2.28;;
13481;SDS011;6813;60.352;15.746;2023-07-31T03:30:54;3.90;;;2.33;;
13481;SDS011;6813;60.352;15.746;2023-07-31T03:33:20;3.33;;;2.42;;
13481;SDS011;6813;60.352;15.746;2023-07-31T03:35:46;6.72;;;2.80;;
13481;SDS011;6813;60.352;15.746;2023-07-31T03:38:12;4.90;;;3.17;;
13481;SDS011;6813;60.352;15.746;2023-07-31T03:40:38;4.38;;;3.30;;
13481;SDS011;6813;60.352;15.746;2023-07-31T03:43:04;4.30;;;3.50;;
13481;SDS011;6813;60.352;15.746;2023-07-31T03:45:30;5.70;;;3.55;;
13481;SDS011;6813;60.352;15.746;2023-07-31T03:47:56;3.92;;;3.38;;
13481;SDS011;6813;60.352;15.746;2023-07-31T03:50:22;5.72;;;4.03;;
13481;SDS011;6813;60.352;15.746;2023-07-31T03:52:47;4.38;;;3.58;;
13481;SDS011;6813;60.352;15.746;2023-07-31T03:55:13;5.82;;;3.65;;
13481;SDS011;6813;60.352;15.746;2023-07-31T03:57:39;7.63;;;3.72;;
13481;SDS011;6813;60.352;15.746;2023-07-31T04:00:05;5.72;;;3.47;;
13481;SDS011;6813;60.352;15.746;2023-07-31T04:02:31;4.07;;;2.92;;
13481;SDS011;6813;60.352;15.746;2023-07-31T04:04:56;6.05;;;3.10;;
13481;SDS011;6813;60.352;15.746;2023-07-31T04:07:22;4.65;;;3.15;;
13481;SDS011;6813;60.352;15.746;2023-07-31T04:09:48;4.13;;;2.92;;
13481;SDS011;6813;60.352;15.746;2023-07-31T04:12:13;3.03;;;2.60;;
13481;SDS011;6813;60.352;15.746;2023-07-31T04:14:39;3.65;;;2.58;;
13481;SDS011;6813;60.352;15.746;2023-07-31T04:17:05;4.55;;;2.85;;
13481;SDS011;6813;60.352;15.746;2023-07-31T04:19:30;3.10;;;2.55;;
13481;SDS011;6813;60.352;15.746;2023-07-31T04:21:56;4.10;;;2.30;;
13481;SDS011;6813;60.352;15.746;2023-07-31T04:24:22;3.55;;;2.28;;
13481;SDS011;6813;60.352;15.746;2023-07-31T04:26:50;4.22;;;1.70;;
13481;SDS011;6813;60.352;15.746;2023-07-31T04:29:16;5.45;;;2.50;;
13481;SDS011;6813;60.352;15.746;2023-07-31T04:31:42;5.32;;;2.25;;
13481;SDS011;6813;60.352;15.746;2023-07-31T04:34:08;3.17;;;1.73;;
13481;SDS011;6813;60.352;15.746;2023-07-31T04:36:34;2.28;;;2.08;;
13481;SDS011;6813;60.352;15.746;2023-07-31T04:39:00;2.03;;;1.80;;
13481;SDS011;6813;60.352;15.746;2023-07-31T04:41:26;4.18;;;1.65;;
13481;SDS011;6813;60.352;15.746;2023-07-31T04:43:52;1.98;;;1.70;;
13481;SDS011;6813;60.352;15.746;2023-07-31T04:46:17;1.90;;;1.80;;
13481;SDS011;6813;60.352;15.746;2023-07-31T04:48:43;2.13;;;1.60;;
13481;SDS011;6813;60.352;15.746;2023-07-31T04:51:09;1.90;;;1.52;;
13481;SDS011;6813;60.352;15.746;2023-07-31T04:53:35;3.03;;;1.77;;
13481;SDS011;6813;60.352;15.746;2023-07-31T04:56:01;2.35;;;2.00;;
13481;SDS011;6813;60.352;15.746;2023-07-31T04:58:26;1.40;;;1.30;;
13481;SDS011;6813;60.352;15.746;2023-07-31T05:00:52;2.20;;;2.00;;
13481;SDS011;6813;60.352;15.746;2023-07-31T05:03:18;2.13;;;1.60;;
13481;SDS011;6813;60.352;15.746;2023-07-31T05:05:43;4.47;;;1.80;;
13481;SDS011;6813;60.352;15.746;2023-07-31T05:08:09;1.95;;;1.73;;
13481;SDS011;6813;60.352;15.746;2023-07-31T05:10:35;1.67;;;1.58;;
13481;SDS011;6813;60.352;15.746;2023-07-31T05:13:00;2.33;;;1.52;;
13481;SDS011;6813;60.352;15.746;2023-07-31T05:15:26;1.48;;;1.27;;
13481;SDS011;6813;60.352;15.746;2023-07-31T05:17:52;2.63;;;1.50;;
13481;SDS011;6813;60.352;15.746;2023-07-31T05:20:17;7.65;;;1.52;;
13481;SDS011;6813;60.352;15.746;2023-07-31T05:22:43;3.60;;;1.73;;
13481;SDS011;6813;60.352;15.746;2023-07-31T05:25:09;2.13;;;1.52;;
13481;SDS011;6813;60.352;15.746;2023-07-31T05:27:34;4.40;;;1.70;;
13481;SDS011;6813;60.352;15.746;2023-07-31T05:30:00;2.97;;;1.60;;
13481;SDS011;6813;60.352;15.746;2023-07-31T05:32:26;2.72;;;1.90;;
13481;SDS011;6813;60.352;15.746;2023-07-31T05:34:52;2.33;;;1.70;;
13481;SDS011;6813;60.352;15.746;2023-07-31T05:37:18;4.07;;;1.92;;
13481;SDS011;6813;60.352;15.746;2023-07-31T05:39:44;2.53;;;1.77;;
13481;SDS011;6813;60.352;15.746;2023-07-31T05:42:10;4.03;;;1.98;;
13481;SDS011;6813;60.352;15.746;2023-07-31T05:44:35;4.70;;;1.83;;
13481;SDS011;6813;60.352;15.746;2023-07-31T05:47:01;3.35;;;1.65;;
13481;SDS011;6813;60.352;15.746;2023-07-31T05:49:27;2.75;;;1.65;;
13481;SDS011;6813;60.352;15.746;2023-07-31T05:51:52;3.53;;;1.50;;
13481;SDS011;6813;60.352;15.746;2023-07-31T05:54:18;3.20;;;1.73;;
13481;SDS011;6813;60.352;15.746;2023-07-31T05:56:44;2.13;;;1.60;;
13481;SDS011;6813;60.352;15.746;2023-07-31T05:59:11;4.80;;;1.92;;
13481;SDS011;6813;60.352;15.746;2023-07-31T06:01:37;2.35;;;1.60;;
13481;SDS011;6813;60.352;15.746;2023-07-31T06:04:03;5.80;;;1.45;;
13481;SDS011;6813;60.352;15.746;2023-07-31T06:06:29;2.47;;;1.42;;
13481;SDS011;6813;60.352;15.746;2023-07-31T06:08:54;3.47;;;1.70;;
13481;SDS011;6813;60.352;15.746;2023-07-31T06:11:20;4.15;;;1.60;;
13481;SDS011;6813;60.352;15.746;2023-07-31T06:13:47;5.35;;;1.75;;
13481;SDS011;6813;60.352;15.746;2023-07-31T06:16:14;2.58;;;1.50;;
13481;SDS011;6813;60.352;15.746;2023-07-31T06:18:40;3.13;;;1.70;;
13481;SDS011;6813;60.352;15.746;2023-07-31T06:21:07;3.47;;;1.95;;
13481;SDS011;6813;60.352;15.746;2023-07-31T06:23:32;2.40;;;1.55;;
13481;SDS011;6813;60.352;15.746;2023-07-31T06:25:58;4.72;;;1.95;;
13481;SDS011;6813;60.352;15.746;2023-07-31T06:28:28;4.40;;;1.70;;
13481;SDS011;6813;60.352;15.746;2023-07-31T06:30:56;3.72;;;1.67;;
13481;SDS011;6813;60.352;15.746;2023-07-31T06:33:23;4.35;;;1.77;;
13481;SDS011;6813;60.352;15.746;2023-07-31T06:35:49;2.83;;;1.67;;
13481;SDS011;6813;60.352;15.746;2023-07-31T06:38:14;6.25;;;1.90;;
13481;SDS011;6813;60.352;15.746;2023-07-31T06:40:40;3.05;;;1.77;;
13481;SDS011;6813;60.352;15.746;2023-07-31T06:43:06;3.28;;;1.85;;
13481;SDS011;6813;60.352;15.746;2023-07-31T06:45:35;4.03;;;1.70;;
13481;SDS011;6813;60.352;15.746;2023-07-31T06:48:01;4.63;;;1.88;;
13481;SDS011;6813;60.352;15.746;2023-07-31T06:50:30;4.50;;;1.67;;
13481;SDS011;6813;60.352;15.746;2023-07-31T06:52:56;4.63;;;1.50;;
13481;SDS011;6813;60.352;15.746;2023-07-31T06:55:22;2.05;;;1.30;;
13481;SDS011;6813;60.352;15.746;2023-07-31T06:57:49;2.90;;;1.40;;
13481;SDS011;6813;60.352;15.746;2023-07-31T07:00:16;4.05;;;1.83;;
13481;SDS011;6813;60.352;15.746;2023-07-31T07:02:42;4.03;;;1.80;;
13481;SDS011;6813;60.352;15.746;2023-07-31T07:05:08;3.28;;;1.70;;
13481;SDS011;6813;60.352;15.746;2023-07-31T07:07:34;2.70;;;1.52;;
13481;SDS011;6813;60.352;15.746;2023-07-31T07:10:00;3.30;;;1.75;;
13481;SDS011;6813;60.352;15.746;2023-07-31T07:12:29;6.07;;;3.10;;
13481;SDS011;6813;60.352;15.746;2023-07-31T07:14:55;6.03;;;2.25;;
13481;SDS011;6813;60.352;15.746;2023-07-31T07:17:22;4.50;;;1.70;;
13481;SDS011;6813;60.352;15.746;2023-07-31T07:19:48;4.47;;;1.85;;
13481;SDS011;6813;60.352;15.746;2023-07-31T07:22:14;2.80;;;1.63;;
13481;SDS011;6813;60.352;15.746;2023-07-31T07:24:40;3.78;;;1.50;;
13481;SDS011;6813;60.352;15.746;2023-07-31T07:27:06;3.53;;;1.67;;
13481;SDS011;6813;60.352;15.746;2023-07-31T07:29:33;4.03;;;1.58;;
13481;SDS011;6813;60.352;15.746;2023-07-31T07:31:59;5.57;;;1.70;;
13481;SDS011;6813;60.352;15.746;2023-07-31T07:34:26;2.80;;;1.30;;
13481;SDS011;6813;60.352;15.746;2023-07-31T07:36:52;3.17;;;1.65;;
13481;SDS011;6813;60.352;15.746;2023-07-31T07:39:18;3.63;;;1.80;;
13481;SDS011;6813;60.352;15.746;2023-07-31T07:41:44;4.53;;;1.50;;
13481;SDS011;6813;60.352;15.746;2023-07-31T07:44:10;7.57;;;1.80;;
13481;SDS011;6813;60.352;15.746;2023-07-31T07:46:35;3.88;;;1.85;;
13481;SDS011;6813;60.352;15.746;2023-07-31T07:49:01;2.92;;;1.60;;
13481;SDS011;6813;60.352;15.746;2023-07-31T07:51:27;2.75;;;1.50;;
13481;SDS011;6813;60.352;15.746;2023-07-31T07:53:52;6.30;;;1.50;;
13481;SDS011;6813;60.352;15.746;2023-07-31T07:56:19;6.30;;;1.55;;
13481;SDS011;6813;60.352;15.746;2023-07-31T07:58:44;2.83;;;1.52;;
13481;SDS011;6813;60.352;15.746;2023-07-31T08:01:13;2.95;;;1.40;;
13481;SDS011;6813;60.352;15.746;2023-07-31T08:03:38;4.85;;;1.60;;
13481;SDS011;6813;60.352;15.746;2023-07-31T08:06:04;4.75;;;1.88;;
13481;SDS011;6813;60.352;15.746;2023-07-31T08:08:30;2.67;;;1.20;;
13481;SDS011;6813;60.352;15.746;2023-07-31T08:10:56;4.78;;;1.48;;
13481;SDS011;6813;60.352;15.746;2023-07-31T08:13:21;5.35;;;1.70;;
13481;SDS011;6813;60.352;15.746;2023-07-31T08:15:47;4.63;;;1.65;;
13481;SDS011;6813;60.352;15.746;2023-07-31T08:18:12;4.07;;;1.63;;
13481;SDS011;6813;60.352;15.746;2023-07-31T08:20:38;2.83;;;1.40;;
13481;SDS011;6813;60.352;15.746;2023-07-31T08:23:04;2.78;;;1.60;;
13481;SDS011;6813;60.352;15.746;2023-07-31T08:25:30;4.30;;;1.50;;
13481;SDS011;6813;60.352;15.746;2023-07-31T08:27:55;3.65;;;1.70;;
13481;SDS011;6813;60.352;15.746;2023-07-31T08:30:22;4.53;;;1.50;;
13481;SDS011;6813;60.352;15.746;2023-07-31T08:32:48;3.50;;;1.50;;
13481;SDS011;6813;60.352;15.746;2023-07-31T08:35:14;4.43;;;1.80;;
13481;SDS011;6813;60.352;15.746;2023-07-31T08:37:40;3.28;;;1.58;;
13481;SDS011;6813;60.352;15.746;2023-07-31T08:40:05;2.08;;;1.20;;
13481;SDS011;6813;60.352;15.746;2023-07-31T08:42:32;1.90;;;1.10;;
13481;SDS011;6813;60.352;15.746;2023-07-31T08:44:58;2.38;;;1.55;;
13481;SDS011;6813;60.352;15.746;2023-07-31T08:47:25;3.10;;;1.40;;
13481;SDS011;6813;60.352;15.746;2023-07-31T08:49:53;2.50;;;1.45;;
13481;SDS011;6813;60.352;15.746;2023-07-31T08:52:20;3.67;;;1.80;;
13481;SDS011;6813;60.352;15.746;2023-07-31T08:54:46;2.53;;;1.80;;
13481;SDS011;6813;60.352;15.746;2023-07-31T08:57:12;3.95;;;1.50;;
13481;SDS011;6813;60.352;15.746;2023-07-31T08:59:39;4.35;;;1.83;;
13481;SDS011;6813;60.352;15.746;2023-07-31T09:02:06;5.43;;;1.63;;
13481;SDS011;6813;60.352;15.746;2023-07-31T09:04:33;5.07;;;1.77;;
13481;SDS011;6813;60.352;15.746;2023-07-31T09:07:00;4.18;;;1.60;;
13481;SDS011;6813;60.352;15.746;2023-07-31T09:09:28;2.55;;;1.20;;
13481;SDS011;6813;60.352;15.746;2023-07-31T09:11:54;3.33;;;1.60;;
13481;SDS011;6813;60.352;15.746;2023-07-31T09:14:22;3.70;;;1.35;;
13481;SDS011;6813;60.352;15.746;2023-07-31T09:16:51;5.75;;;1.67;;
13481;SDS011;6813;60.352;15.746;2023-07-31T09:21:54;3.15;;;1.40;;
13481;SDS011;6813;60.352;15.746;2023-07-31T09:24:30;3.45;;;1.40;;
13481;SDS011;6813;60.352;15.746;2023-07-31T09:26:57;5.15;;;1.80;;
13481;SDS011;6813;60.352;15.746;2023-07-31T09:29:24;4.22;;;1.42;;
13481;SDS011;6813;60.352;15.746;2023-07-31T09:31:51;3.20;;;1.40;;
13481;SDS011;6813;60.352;15.746;2023-07-31T09:34:18;4.55;;;1.45;;
13481;SDS011;6813;60.352;15.746;2023-07-31T09:36:44;2.30;;;1.45;;
13481;SDS011;6813;60.352;15.746;2023-07-31T09:39:12;3.58;;;1.45;;
13481;SDS011;6813;60.352;15.746;2023-07-31T09:41:41;3.63;;;1.42;;
13481;SDS011;6813;60.352;15.746;2023-07-31T09:44:20;4.72;;;1.40;;
13481;SDS011;6813;60.352;15.746;2023-07-31T09:46:47;2.50;;;1.60;;
13481;SDS011;6813;60.352;15.746;2023-07-31T09:49:13;3.65;;;1.70;;
13481;SDS011;6813;60.352;15.746;2023-07-31T09:51:40;3.30;;;1.20;;
13481;SDS011;6813;60.352;15.746;2023-07-31T09:54:14;3.88;;;1.52;;
13481;SDS011;6813;60.352;15.746;2023-07-31T09:56:42;5.40;;;1.52;;
13481;SDS011;6813;60.352;15.746;2023-07-31T09:59:12;5.25;;;1.70;;
13481;SDS011;6813;60.352;15.746;2023-07-31T10:01:45;3.75;;;1.42;;
13481;SDS011;6813;60.352;15.746;2023-07-31T10:04:12;2.92;;;1.40;;
13481;SDS011;6813;60.352;15.746;2023-07-31T10:06:39;4.45;;;1.70;;
13481;SDS011;6813;60.352;15.746;2023-07-31T10:09:11;3.67;;;1.70;;
13481;SDS011;6813;60.352;15.746;2023-07-31T10:11:47;2.47;;;1.40;;
13481;SDS011;6813;60.352;15.746;2023-07-31T10:14:21;2.55;;;1.27;;
13481;SDS011;6813;60.352;15.746;2023-07-31T10:16:48;4.47;;;1.73;;
13481;SDS011;6813;60.352;15.746;2023-07-31T10:19:15;2.20;;;1.50;;
13481;SDS011;6813;60.352;15.746;2023-07-31T10:21:43;4.10;;;1.38;;
13481;SDS011;6813;60.352;15.746;2023-07-31T10:24:09;3.72;;;1.77;;
13481;SDS011;6813;60.352;15.746;2023-07-31T10:26:34;3.70;;;1.42;;
13481;SDS011;6813;60.352;15.746;2023-07-31T10:29:02;4.55;;;1.50;;
13481;SDS011;6813;60.352;15.746;2023-07-31T10:31:30;4.78;;;1.42;;
13481;SDS011;6813;60.352;15.746;2023-07-31T10:33:57;2.40;;;1.40;;
13481;SDS011;6813;60.352;15.746;2023-07-31T10:36:24;3.55;;;1.40;;
13481;SDS011;6813;60.352;15.746;2023-07-31T10:38:50;6.10;;;1.33;;
13481;SDS011;6813;60.352;15.746;2023-07-31T10:41:16;3.25;;;1.40;;
13481;SDS011;6813;60.352;15.746;2023-07-31T10:43:42;2.90;;;1.48;;
13481;SDS011;6813;60.352;15.746;2023-07-31T10:46:11;3.08;;;1.45;;
13481;SDS011;6813;60.352;15.746;2023-07-31T10:48:38;5.20;;;1.30;;
13481;SDS011;6813;60.352;15.746;2023-07-31T10:51:10;4.05;;;1.48;;
13481;SDS011;6813;60.352;15.746;2023-07-31T10:53:38;3.92;;;1.58;;
13481;SDS011;6813;60.352;15.746;2023-07-31T10:56:06;3.38;;;1.42;;
13481;SDS011;6813;60.352;15.746;2023-07-31T10:58:33;2.25;;;1.40;;
13481;SDS011;6813;60.352;15.746;2023-07-31T11:01:01;3.40;;;1.63;;
13481;SDS011;6813;60.352;15.746;2023-07-31T11:03:41;3.78;;;1.40;;
13481;SDS011;6813;60.352;15.746;2023-07-31T11:06:10;1.90;;;1.25;;
13481;SDS011;6813;60.352;15.746;2023-07-31T11:08:41;5.68;;;1.73;;
13481;SDS011;6813;60.352;15.746;2023-07-31T11:11:09;2.90;;;1.40;;
13481;SDS011;6813;60.352;15.746;2023-07-31T11:16:18;6.20;;;1.80;;
13481;SDS011;6813;60.352;15.746;2023-07-31T11:18:45;2.67;;;1.55;;
13481;SDS011;6813;60.352;15.746;2023-07-31T11:21:17;3.58;;;1.30;;
13481;SDS011;6813;60.352;15.746;2023-07-31T11:23:47;2.47;;;1.45;;
13481;SDS011;6813;60.352;15.746;2023-07-31T11:26:15;4.00;;;1.40;;
13481;SDS011;6813;60.352;15.746;2023-07-31T11:28:42;2.83;;;1.40;;
13481;SDS011;6813;60.352;15.746;2023-07-31T11:31:11;6.88;;;1.40;;
13481;SDS011;6813;60.352;15.746;2023-07-31T11:33:36;3.05;;;1.13;;
13481;SDS011;6813;60.352;15.746;2023-07-31T11:36:02;2.97;;;1.48;;
13481;SDS011;6813;60.352;15.746;2023-07-31T11:38:32;6.13;;;1.80;;
13481;SDS011;6813;60.352;15.746;2023-07-31T11:41:02;4.72;;;1.55;;
13481;SDS011;6813;60.352;15.746;2023-07-31T11:43:29;3.40;;;1.50;;
13481;SDS011;6813;60.352;15.746;2023-07-31T11:45:58;4.30;;;1.60;;
13481;SDS011;6813;60.352;15.746;2023-07-31T11:48:31;3.70;;;1.55;;
13481;SDS011;6813;60.352;15.746;2023-07-31T11:51:03;3.80;;;1.25;;
13481;SDS011;6813;60.352;15.746;2023-07-31T11:53:35;3.10;;;1.45;;
13481;SDS011;6813;60.352;15.746;2023-07-31T11:56:06;2.80;;;1.60;;
13481;SDS011;6813;60.352;15.746;2023-07-31T11:58:36;5.18;;;1.40;;
13481;SDS011;6813;60.352;15.746;2023-07-31T12:01:03;4.00;;;1.63;;
13481;SDS011;6813;60.352;15.746;2023-07-31T12:03:29;4.00;;;1.48;;
13481;SDS011;6813;60.352;15.746;2023-07-31T12:05:58;3.22;;;1.40;;
13481;SDS011;6813;60.352;15.746;2023-07-31T12:08:24;5.07;;;1.95;;
13481;SDS011;6813;60.352;15.746;2023-07-31T12:10:50;4.28;;;1.80;;
13481;SDS011;6813;60.352;15.746;2023-07-31T12:13:20;5.57;;;1.90;;
13481;SDS011;6813;60.352;15.746;2023-07-31T12:15:48;5.75;;;1.67;;
13481;SDS011;6813;60.352;15.746;2023-07-31T12:18:15;3.47;;;1.90;;
13481;SDS011;6813;60.352;15.746;2023-07-31T12:20:45;4.00;;;2.10;;
13481;SDS011;6813;60.352;15.746;2023-07-31T12:23:16;2.80;;;1.42;;
13481;SDS011;6813;60.352;15.746;2023-07-31T12:25:59;4.55;;;1.67;;
13481;SDS011;6813;60.352;15.746;2023-07-31T12:28:36;4.28;;;1.60;;
13481;SDS011;6813;60.352;15.746;2023-07-31T12:31:18;4.43;;;1.90;;
13481;SDS011;6813;60.352;15.746;2023-07-31T12:33:46;3.05;;;1.67;;
13481;SDS011;6813;60.352;15.746;2023-07-31T12:36:14;6.38;;;1.77;;
13481;SDS011;6813;60.352;15.746;2023-07-31T12:38:47;4.53;;;1.73;;
13481;SDS011;6813;60.352;15.746;2023-07-31T12:41:13;3.65;;;1.38;;
13481;SDS011;6813;60.352;15.746;2023-07-31T12:43:40;2.40;;;1.70;;
13481;SDS011;6813;60.352;15.746;2023-07-31T12:46:07;3.88;;;1.73;;
13481;SDS011;6813;60.352;15.746;2023-07-31T12:48:33;4.20;;;1.65;;
13481;SDS011;6813;60.352;15.746;2023-07-31T12:50:59;5.45;;;2.05;;
13481;SDS011;6813;60.352;15.746;2023-07-31T12:53:25;4.05;;;1.55;;
13481;SDS011;6813;60.352;15.746;2023-07-31T12:55:51;2.67;;;1.60;;
13481;SDS011;6813;60.352;15.746;2023-07-31T12:58:16;4.68;;;1.92;;
13481;SDS011;6813;60.352;15.746;2023-07-31T13:00:42;6.20;;;1.77;;
13481;SDS011;6813;60.352;15.746;2023-07-31T13:03:08;4.80;;;1.73;;
13481;SDS011;6813;60.352;15.746;2023-07-31T13:05:33;4.93;;;1.75;;
13481;SDS011;6813;60.352;15.746;2023-07-31T13:07:59;6.20;;;1.83;;
13481;SDS011;6813;60.352;15.746;2023-07-31T13:10:25;4.50;;;1.67;;
13481;SDS011;6813;60.352;15.746;2023-07-31T13:12:53;2.70;;;1.55;;
13481;SDS011;6813;60.352;15.746;2023-07-31T13:15:19;7.00;;;1.80;;
13481;SDS011;6813;60.352;15.746;2023-07-31T13:17:45;4.65;;;1.50;;
13481;SDS011;6813;60.352;15.746;2023-07-31T13:20:11;2.72;;;1.40;;
13481;SDS011;6813;60.352;15.746;2023-07-31T13:22:37;4.05;;;1.42;;
13481;SDS011;6813;60.352;15.746;2023-07-31T13:25:03;3.40;;;1.45;;
13481;SDS011;6813;60.352;15.746;2023-07-31T13:27:30;5.20;;;1.60;;
13481;SDS011;6813;60.352;15.746;2023-07-31T13:29:56;4.13;;;1.40;;
13481;SDS011;6813;60.352;15.746;2023-07-31T13:32:21;2.80;;;1.65;;
13481;SDS011;6813;60.352;15.746;2023-07-31T13:34:48;6.30;;;1.42;;
13481;SDS011;6813;60.352;15.746;2023-07-31T13:37:14;2.55;;;1.15;;
13481;SDS011;6813;60.352;15.746;2023-07-31T13:39:41;2.03;;;1.20;;
13481;SDS011;6813;60.352;15.746;2023-07-31T13:42:07;4.32;;;1.55;;
13481;SDS011;6813;60.352;15.746;2023-07-31T13:44:37;3.53;;;1.35;;
13481;SDS011;6813;60.352;15.746;2023-07-31T13:47:03;2.90;;;1.38;;
13481;SDS011;6813;60.352;15.746;2023-07-31T13:49:29;3.20;;;1.13;;
13481;SDS011;6813;60.352;15.746;2023-07-31T13:51:55;3.85;;;1.25;;
13481;SDS011;6813;60.352;15.746;2023-07-31T13:54:24;2.05;;;1.08;;
13481;SDS011;6813;60.352;15.746;2023-07-31T13:56:51;3.05;;;1.45;;
13481;SDS011;6813;60.352;15.746;2023-07-31T13:59:17;4.30;;;1.27;;
13481;SDS011;6813;60.352;15.746;2023-07-31T14:01:43;1.25;;;0.95;;
13481;SDS011;6813;60.352;15.746;2023-07-31T14:04:09;2.55;;;1.30;;
13481;SDS011;6813;60.352;15.746;2023-07-31T14:06:35;2.75;;;1.17;;
13481;SDS011;6813;60.352;15.746;2023-07-31T14:09:01;1.25;;;1.10;;
13481;SDS011;6813;60.352;15.746;2023-07-31T14:11:27;1.40;;;0.90;;
13481;SDS011;6813;60.352;15.746;2023-07-31T14:13:54;1.52;;;1.00;;
13481;SDS011;6813;60.352;15.746;2023-07-31T14:16:21;2.35;;;0.93;;
13481;SDS011;6813;60.352;15.746;2023-07-31T14:18:47;1.95;;;1.00;;
13481;SDS011;6813;60.352;15.746;2023-07-31T14:21:12;1.20;;;1.00;;
13481;SDS011;6813;60.352;15.746;2023-07-31T14:23:39;1.35;;;1.00;;
13481;SDS011;6813;60.352;15.746;2023-07-31T14:26:05;1.65;;;1.20;;
13481;SDS011;6813;60.352;15.746;2023-07-31T14:28:31;2.83;;;1.20;;
13481;SDS011;6813;60.352;15.746;2023-07-31T14:30:56;2.15;;;1.30;;
13481;SDS011;6813;60.352;15.746;2023-07-31T14:33:22;2.20;;;1.20;;
13481;SDS011;6813;60.352;15.746;2023-07-31T14:35:48;3.50;;;1.23;;
13481;SDS011;6813;60.352;15.746;2023-07-31T14:38:14;1.45;;;1.00;;
13481;SDS011;6813;60.352;15.746;2023-07-31T14:40:40;1.13;;;0.98;;
13481;SDS011;6813;60.352;15.746;2023-07-31T14:43:06;0.98;;;0.90;;
13481;SDS011;6813;60.352;15.746;2023-07-31T14:45:32;1.90;;;1.13;;
13481;SDS011;6813;60.352;15.746;2023-07-31T14:47:58;2.33;;;1.20;;
13481;SDS011;6813;60.352;15.746;2023-07-31T14:50:23;3.38;;;1.17;;
13481;SDS011;6813;60.352;15.746;2023-07-31T14:52:51;2.35;;;1.08;;
13481;SDS011;6813;60.352;15.746;2023-07-31T14:55:18;3.70;;;1.20;;
13481;SDS011;6813;60.352;15.746;2023-07-31T14:57:44;2.45;;;1.50;;